Weather reports worldwide

Advertisment
Lorca, Spain (8426): temperature & dewpoint: 20.09.2018 17:00:00 - 26.09.2018 17:00:00 (CEST)Lorca, Spain (8426): wind speed & gusts: 20.09.2018 17:00:00 - 26.09.2018 17:00:00 (CEST)Lorca, Spain (8426): wind direction: 20.09.2018 17:00:00 - 26.09.2018 17:00:00 (CEST)Lorca, Spain (8426): precipitation: 20.09.2018 17:00:00 - 26.09.2018 17:00:00 (CEST)
Date & Time tt [°C] td [°C] ff [km/h] ff [kn] fx [km/h] fx [kn] dd rr [mm]
26.09.2018 17:00:00 26,6 16,8 6 3 25 14 E 0,0
26.09.2018 16:00:00 26,7 16,3 8 4 26 14 E 0,0
26.09.2018 15:00:00 28,2 15,8 9 5 28 15 ENE 0,0
26.09.2018 14:00:00 26,1 15,4 12 6 24 13 NE -
26.09.2018 13:00:00 26,5 16,5 8 5 28 15 NE 0,0
26.09.2018 12:00:00 25,8 16,0 8 4 20 11 ENE 0,0
26.09.2018 11:00:00 24,0 17,0 5 3 12 7 ENE 0,0
26.09.2018 10:00:00 22,1 16,4 4 2 11 6 N 0,0
26.09.2018 09:00:00 20,6 16,6 4 2 10 6 NW 0,0
26.09.2018 08:00:00 20,1 17,1 2 1 8 4 N -
26.09.2018 07:00:00 20,4 18,7 5 3 15 8 NE 0,0
26.09.2018 06:00:00 20,8 19,1 5 3 15 8 ENE 0,0
26.09.2018 05:00:00 21,0 19,5 4 2 12 7 ENE 0,0
26.09.2018 04:00:00 21,6 19,1 3 1 10 6 ENE 0,0
26.09.2018 03:00:00 21,7 19,3 3 2 16 8 ENE 0,0
26.09.2018 02:00:00 21,9 19,1 3 2 17 9 E -
26.09.2018 01:00:00 22,2 19,2 4 2 15 8 ENE 0,0
26.09.2018 00:00:00 22,3 19,3 4 2 16 9 ENE 0,0
25.09.2018 23:00:00 22,3 19,1 5 3 19 10 E 0,0
25.09.2018 22:00:00 23,0 19,1 4 2 16 9 E 0,0
25.09.2018 21:00:00 23,4 18,9 5 3 15 8 ENE 0,0
25.09.2018 20:00:00 - - - - - - - -
25.09.2018 19:00:00 25,6 18,5 4 2 13 7 E 0,0
25.09.2018 18:00:00 27,4 18,9 4 2 15 8 E 0,0
25.09.2018 17:00:00 28,1 19,3 3 2 15 8 ESE 0,0
25.09.2018 16:00:00 29,8 19,8 4 2 16 8 E 0,0
25.09.2018 15:00:00 28,5 19,4 5 3 18 10 E 0,0
25.09.2018 14:00:00 28,5 20,0 5 3 19 10 ENE -
25.09.2018 13:00:00 27,6 20,2 4 2 17 9 ENE 0,0
25.09.2018 12:00:00 26,1 19,7 6 3 17 9 ENE 0,0
25.09.2018 11:00:00 23,5 17,9 3 1 10 5 NNE 0,0
25.09.2018 10:00:00 21,9 16,4 4 2 10 6 NNW 0,0
25.09.2018 09:00:00 19,3 14,1 5 3 12 7 N 0,0
25.09.2018 08:00:00 18,8 13,9 4 2 11 6 N -
25.09.2018 07:00:00 19,0 13,7 6 3 13 7 NNE 0,0
25.09.2018 06:00:00 19,6 13,8 5 3 11 6 N 0,0
25.09.2018 05:00:00 20,1 14,0 4 2 10 6 N 0,0
25.09.2018 04:00:00 20,2 14,1 4 2 8 5 N 0,0
25.09.2018 03:00:00 20,8 15,5 3 2 8 4 N 0,0
25.09.2018 02:00:00 21,5 17,5 2 1 6 3 NNE -
25.09.2018 01:00:00 22,1 17,7 1 1 9 5 NNE 0,0
25.09.2018 00:00:00 22,8 17,5 6 3 12 6 NE 0,0
24.09.2018 23:00:00 23,8 15,3 5 3 9 5 NE 0,0
24.09.2018 22:00:00 24,6 13,2 3 2 8 5 NNE 0,0
24.09.2018 21:00:00 25,8 13,0 5 3 13 7 SSW 0,0
24.09.2018 20:00:00 27,7 12,8 4 2 14 7 SW -
24.09.2018 19:00:00 30,1 13,0 9 5 18 10 SW 0,0
24.09.2018 18:00:00 32,4 14,5 9 5 16 8 S 0,0
24.09.2018 17:00:00 33,9 15,3 3 1 19 10 E 0,0
24.09.2018 16:00:00 33,9 15,3 1 1 11 6 ENE 0,0
24.09.2018 15:00:00 32,8 14,9 4 2 11 6 ENE 0,0
24.09.2018 14:00:00 32,1 14,7 2 1 8 4 ENE -
24.09.2018 13:00:00 31,1 14,2 1 1 8 4 E 0,0
24.09.2018 12:00:00 28,9 13,9 1 1 8 4 SE 0,0
24.09.2018 11:00:00 25,9 15,0 4 2 8 4 N 0,0
24.09.2018 10:00:00 22,1 13,9 1 1 8 4 WSW 0,0
24.09.2018 09:00:00 19,3 14,1 1 0 4 2 WSW 0,0
24.09.2018 08:00:00 18,2 13,9 1 1 6 3 WSW -
24.09.2018 07:00:00 18,0 14,1 1 1 4 2 W 0,0
24.09.2018 06:00:00 18,3 14,2 1 1 3 2 SSE 0,0
24.09.2018 05:00:00 19,0 14,0 0 0 4 2 W 0,0
24.09.2018 04:00:00 19,6 13,9 1 1 6 3 S 0,0
24.09.2018 03:00:00 21,4 13,4 3 1 7 4 NNW 0,0
24.09.2018 02:00:00 20,4 14,0 0 0 4 2 WNW -
24.09.2018 01:00:00 20,9 14,0 1 1 6 3 NNE 0,0
24.09.2018 00:00:00 21,5 13,9 0 0 4 2 S 0,0
23.09.2018 23:00:00 22,5 13,9 1 1 4 2 NE 0,0
23.09.2018 22:00:00 23,8 13,4 2 1 8 5 SSE 0,0
23.09.2018 21:00:00 25,2 13,1 3 2 11 6 SW 0,0
23.09.2018 20:00:00 27,3 14,3 4 2 15 8 S -
23.09.2018 19:00:00 29,7 14,2 8 5 16 9 SW 0,0
23.09.2018 18:00:00 31,2 13,5 7 4 17 9 SSW 0,0
23.09.2018 17:00:00 32,7 14,3 7 4 16 8 S 0,0
23.09.2018 16:00:00 32,9 14,0 6 3 14 8 S 0,0
23.09.2018 15:00:00 32,5 13,7 0 0 12 6 SSE 0,0
23.09.2018 14:00:00 32,1 13,4 1 0 8 5 S -
23.09.2018 13:00:00 30,8 14,0 1 0 7 4 SSE 0,0
23.09.2018 12:00:00 28,3 14,9 3 1 7 4 SSW 0,0
23.09.2018 11:00:00 24,3 14,1 2 1 9 5 W 0,0
23.09.2018 10:00:00 20,3 13,3 2 1 5 3 WSW 0,0
23.09.2018 09:00:00 18,3 12,7 0 0 6 3 NW 0,0
23.09.2018 08:00:00 18,7 12,0 3 2 8 4 NNW -
23.09.2018 07:00:00 18,3 11,8 3 1 15 8 W 0,0
23.09.2018 06:00:00 18,2 13,1 3 2 10 5 NNW 0,0
23.09.2018 05:00:00 18,4 12,1 0 0 9 5 S 0,0
23.09.2018 04:00:00 20,5 13,9 5 3 11 6 NNW 0,0
23.09.2018 03:00:00 19,0 13,4 1 1 5 3 NNW 0,0
23.09.2018 02:00:00 19,4 13,4 0 0 6 4 S -
23.09.2018 01:00:00 20,0 13,0 0 0 4 2 NNE 0,0
23.09.2018 00:00:00 20,8 13,8 1 1 4 2 ENE 0,0
22.09.2018 23:00:00 22,1 13,8 1 1 7 4 W 0,0
22.09.2018 22:00:00 23,9 13,5 5 3 7 4 SW 0,0
22.09.2018 21:00:00 25,3 12,5 4 2 10 5 SSW 0,0
22.09.2018 20:00:00 26,8 12,8 4 2 17 9 SW -
22.09.2018 19:00:00 28,9 15,1 8 5 16 9 SW 0,0
22.09.2018 18:00:00 30,4 17,9 6 3 18 10 SSW 0,0
22.09.2018 17:00:00 30,8 18,5 7 4 16 9 SSE 0,0
22.09.2018 16:00:00 30,8 18,5 6 3 16 8 S 0,0
22.09.2018 15:00:00 30,7 17,8 3 2 11 6 S 0,0
22.09.2018 14:00:00 30,0 17,8 2 1 9 5 S -
22.09.2018 13:00:00 28,7 17,5 3 1 9 5 ESE 0,0
22.09.2018 12:00:00 26,6 17,9 2 1 8 4 ENE 0,0
22.09.2018 11:00:00 23,6 16,6 1 1 6 3 NNW 0,0
22.09.2018 10:00:00 20,7 16,1 0 0 4 2 E 0,0
22.09.2018 09:00:00 18,9 16,0 1 1 9 5 WSW 0,0
22.09.2018 08:00:00 19,2 14,4 5 3 14 8 NNW -
22.09.2018 07:00:00 18,8 14,9 2 1 7 4 NNW 0,0
22.09.2018 06:00:00 19,1 15,2 3 2 8 4 N 0,0
22.09.2018 05:00:00 19,1 15,3 1 0 4 2 N 0,0
22.09.2018 04:00:00 19,6 16,5 0 0 5 3 NW 0,0
22.09.2018 03:00:00 20,6 16,8 1 1 10 5 SSW 0,0
22.09.2018 02:00:00 20,7 17,5 0 0 3 2 WSW -
22.09.2018 01:00:00 21,5 17,5 3 1 6 3 W 0,0
22.09.2018 00:00:00 21,6 17,8 0 0 3 2 NE 0,0
21.09.2018 23:00:00 22,5 17,9 1 1 4 2 W 0,0
21.09.2018 22:00:00 23,3 17,8 2 1 8 4 W 0,0
21.09.2018 21:00:00 24,2 17,5 5 3 13 7 SW 0,0
21.09.2018 20:00:00 25,7 15,7 5 3 17 9 SSW -
21.09.2018 19:00:00 27,6 15,6 7 4 20 11 S 0,0
21.09.2018 18:00:00 28,7 16,3 8 5 22 12 SSW 0,0
21.09.2018 17:00:00 30,0 17,5 9 5 21 11 S 0,0
21.09.2018 16:00:00 30,6 17,7 9 5 17 9 S 0,0
21.09.2018 15:00:00 30,6 16,6 6 4 16 9 S 0,0
21.09.2018 14:00:00 29,6 16,7 4 2 14 8 S -
21.09.2018 13:00:00 27,9 15,9 5 3 11 6 SSE 0,0
21.09.2018 12:00:00 25,4 16,2 1 1 6 4 W 0,0
21.09.2018 11:00:00 22,7 17,4 2 1 7 4 WSW 0,0
21.09.2018 10:00:00 19,9 16,9 3 2 6 3 WNW 0,0
21.09.2018 09:00:00 17,8 15,1 2 1 5 3 NNW 0,0
21.09.2018 08:00:00 17,3 15,8 0 0 3 2 N -
21.09.2018 07:00:00 17,7 15,3 1 1 7 4 W 0,0
21.09.2018 06:00:00 18,0 16,0 2 1 6 3 N 0,0
21.09.2018 05:00:00 18,7 16,8 1 1 6 3 W 0,0
21.09.2018 04:00:00 18,8 16,4 1 1 4 2 N 0,0
21.09.2018 03:00:00 19,2 16,6 1 0 5 3 WNW 0,0
21.09.2018 02:00:00 19,8 17,4 1 1 5 3 N -
21.09.2018 01:00:00 20,7 18,8 0 0 4 2 NE 0,0
21.09.2018 00:00:00 21,3 19,1 1 1 4 2 W 0,0
20.09.2018 23:00:00 21,6 19,0 1 1 8 5 SW 0,0
20.09.2018 22:00:00 22,4 18,8 3 2 12 6 WSW 0,0
20.09.2018 21:00:00 23,3 18,2 6 3 16 8 SSW 0,0
20.09.2018 20:00:00 24,9 16,3 9 5 15 8 SSW -
20.09.2018 19:00:00 26,8 16,1 6 4 17 9 S 0,0
20.09.2018 18:00:00 28,5 18,0 8 4 18 10 S 0,0
20.09.2018 17:00:00 29,3 18,1 6 3 17 9 S 0,0

tt = temperature
td = dewpoint
ff = wind speed
fx = gusts
dd = wind direction
rr = precipitation

Next stations